Time;durP1;ratioP1;P1;durP2;ratioP2;P2;SDS_P1;SDS_P2;PMS_P1;PMS_P2;Temp;Humidity;BMP_temperature;BMP_pressure;BME280_temperature;BME280_humidity;BME280_pressure;Samples;Min_cycle;Max_cycle;Signal;HPM_P1;HPM_P2
2022/01/24 00:01:13;;;;;;;9.40;7.25;;;;;;;;;;5067064;28;20208;-73
2022/01/24 00:03:40;;;;;;;8.77;6.53;;;;;;;;;;5075789;28;20193;-75
2022/01/24 00:06:10;;;;;;;7.60;5.85;;;;;;;;;;5071027;28;20213;-73
2022/01/24 00:08:37;;;;;;;8.88;6.35;;;;;;;;;;5079572;28;20197;-74
2022/01/24 00:11:09;;;;;;;8.45;6.43;;;;;;;;;;5068569;28;20190;-73
2022/01/24 00:14:25;;;;;;;10.02;5.78;;;;;;;;;;5072549;28;20608;-74
2022/01/24 00:17:02;;;;;;;7.10;5.90;;;;;;;;;;5075385;28;20561;-74
2022/01/24 00:27:44;;;;;;;7.38;5.70;;;;;;;;;;5070623;28;20255;-73
2022/01/24 00:30:11;;;;;;;9.20;6.10;;;;;;;;;;5084501;28;20194;-74
2022/01/24 00:32:38;;;;;;;7.75;5.85;;;;;;;;;;5081149;28;20235;-75
2022/01/24 00:35:06;;;;;;;6.55;5.55;;;;;;;;;;5077377;28;20252;-74
2022/01/24 00:37:34;;;;;;;6.28;5.07;;;;;;;;;;5083308;28;20649;-75
2022/01/24 00:40:01;;;;;;;7.57;5.25;;;;;;;;;;5078216;28;20275;-73
2022/01/24 00:42:34;;;;;;;8.18;5.90;;;;;;;;;;5069500;28;20684;-74
2022/01/24 00:45:09;;;;;;;6.93;6.10;;;;;;;;;;5077470;28;20209;-73
2022/01/24 00:48:06;;;;;;;8.82;6.10;;;;;;;;;;5070914;28;20387;-74
2022/01/24 00:53:31;;;;;;;9.30;5.40;;;;;;;;;;5070725;28;20718;-73
2022/01/24 00:55:59;;;;;;;8.15;4.63;;;;;;;;;;5080380;28;20214;-73
2022/01/24 00:58:26;;;;;;;7.63;5.43;;;;;;;;;;5078022;28;20599;-74
2022/01/24 01:00:54;;;;;;;6.75;5.20;;;;;;;;;;5074536;28;20986;-73
2022/01/24 01:03:24;;;;;;;5.55;4.43;;;;;;;;;;5084311;28;20204;-72
2022/01/24 01:06:04;;;;;;;7.60;5.93;;;;;;;;;;5080597;28;20201;-75
2022/01/24 01:19:31;;;;;;;6.55;4.43;;;;;;;;;;5083322;28;20282;-72
2022/01/24 01:21:58;;;;;;;6.25;4.78;;;;;;;;;;5079143;28;20252;-74
2022/01/24 01:24:26;;;;;;;7.50;4.78;;;;;;;;;;5076809;28;20201;-75
2022/01/24 01:26:58;;;;;;;6.60;4.68;;;;;;;;;;5070940;28;20208;-74
2022/01/24 01:29:30;;;;;;;6.45;5.18;;;;;;;;;;5072537;28;20205;-73
2022/01/24 01:32:09;;;;;;;6.95;4.43;;;;;;;;;;5075680;28;20209;-73
2022/01/24 01:34:57;;;;;;;6.80;4.43;;;;;;;;;;5080683;28;20229;-73
2022/01/24 01:37:52;;;;;;;4.70;3.80;;;;;;;;;;5077506;28;20634;-72
2022/01/24 01:54:22;;;;;;;7.15;4.97;;;;;;;;;;5076417;28;20221;-72
2022/01/24 01:56:49;;;;;;;7.70;3.50;;;;;;;;;;5081530;28;20225;-73
2022/01/24 01:59:16;;;;;;;4.50;3.25;;;;;;;;;;5074404;28;20258;-74
2022/01/24 02:01:43;;;;;;;5.80;3.88;;;;;;;;;;5080063;28;20615;-73
2022/01/24 02:04:11;;;;;;;3.70;3.20;;;;;;;;;;5081534;28;20570;-74
2022/01/24 02:06:38;;;;;;;4.47;3.95;;;;;;;;;;5080325;28;20246;-73
2022/01/24 02:09:07;;;;;;;5.75;3.95;;;;;;;;;;5088168;28;20206;-75
2022/01/24 02:11:34;;;;;;;5.93;3.58;;;;;;;;;;5081823;28;20197;-74
2022/01/24 02:14:04;;;;;;;4.15;3.60;;;;;;;;;;5076920;28;20204;-76
2022/01/24 02:16:40;;;;;;;5.80;3.92;;;;;;;;;;5078942;28;20320;-73
2022/01/24 02:19:17;;;;;;;3.75;3.30;;;;;;;;;;5085280;28;20193;-74
2022/01/24 02:21:46;;;;;;;3.70;2.92;;;;;;;;;;5084829;28;20193;-74
2022/01/24 02:24:15;;;;;;;3.40;2.90;;;;;;;;;;5077046;28;20204;-73
2022/01/24 02:26:42;;;;;;;2.97;2.67;;;;;;;;;;5085706;28;20274;-74
2022/01/24 02:29:23;;;;;;;4.82;2.92;;;;;;;;;;5087312;28;20205;-74
2022/01/24 02:31:51;;;;;;;4.45;3.38;;;;;;;;;;5088875;28;20340;-75
2022/01/24 02:34:21;;;;;;;2.85;2.58;;;;;;;;;;5085389;28;20676;-74
2022/01/24 02:36:49;;;;;;;3.15;2.80;;;;;;;;;;5086156;28;20213;-73
2022/01/24 02:39:43;;;;;;;3.35;2.65;;;;;;;;;;5084341;28;20217;-74
2022/01/24 02:50:38;;;;;;;4.20;3.05;;;;;;;;;;5086042;28;20204;-73
2022/01/24 02:53:06;;;;;;;3.25;2.35;;;;;;;;;;5085485;28;20204;-73
2022/01/24 02:55:34;;;;;;;4.15;2.55;;;;;;;;;;5082718;28;20648;-73
2022/01/24 02:58:01;;;;;;;3.17;2.45;;;;;;;;;;5083192;28;20224;-73
2022/01/24 03:00:28;;;;;;;3.05;2.75;;;;;;;;;;5085812;28;20207;-75
2022/01/24 03:02:55;;;;;;;2.85;2.30;;;;;;;;;;5086648;28;20613;-73
2022/01/24 03:05:22;;;;;;;3.10;2.80;;;;;;;;;;5084088;28;20210;-73
2022/01/24 03:07:49;;;;;;;2.63;2.42;;;;;;;;;;5086248;28;20216;-74
2022/01/24 03:10:26;;;;;;;3.00;2.40;;;;;;;;;;5084980;28;20205;-72
2022/01/24 03:13:09;;;;;;;2.72;2.47;;;;;;;;;;5075486;28;20200;-74
2022/01/24 03:15:36;;;;;;;2.80;2.53;;;;;;;;;;5082615;28;20220;-75
2022/01/24 03:18:03;;;;;;;3.10;2.80;;;;;;;;;;5074864;28;20297;-74
2022/01/24 03:20:30;;;;;;;2.35;2.15;;;;;;;;;;5077624;28;20200;-73
2022/01/24 03:22:57;;;;;;;2.65;2.35;;;;;;;;;;5084114;28;20675;-74
2022/01/24 03:25:26;;;;;;;3.67;2.58;;;;;;;;;;5090439;28;20190;-74
2022/01/24 03:27:53;;;;;;;2.90;2.60;;;;;;;;;;5080962;28;20198;-73
2022/01/24 03:30:20;;;;;;;2.53;2.33;;;;;;;;;;5087223;28;20197;-73
2022/01/24 03:32:47;;;;;;;3.05;2.63;;;;;;;;;;5084818;28;20259;-74
2022/01/24 03:35:14;;;;;;;2.47;2.28;;;;;;;;;;5086684;28;20190;-75
2022/01/24 03:37:41;;;;;;;3.25;2.20;;;;;;;;;;5087363;28;20615;-73
2022/01/24 03:40:08;;;;;;;1.90;1.67;;;;;;;;;;5081335;28;20201;-74
2022/01/24 03:42:36;;;;;;;2.40;2.05;;;;;;;;;;5080230;28;20202;-73
2022/01/24 03:45:06;;;;;;;2.60;2.40;;;;;;;;;;5078912;28;20715;-74
2022/01/24 03:47:45;;;;;;;4.43;2.25;;;;;;;;;;5078666;28;20661;-73
2022/01/24 03:50:16;;;;;;;2.95;2.53;;;;;;;;;;5082571;28;20275;-77
2022/01/24 03:52:43;;;;;;;3.28;1.73;;;;;;;;;;5086855;28;20618;-78
2022/01/24 03:55:11;;;;;;;2.60;2.22;;;;;;;;;;5089230;28;20202;-78
2022/01/24 03:57:40;;;;;;;2.92;2.35;;;;;;;;;;5084106;28;20599;-76
2022/01/24 04:00:08;;;;;;;2.60;2.03;;;;;;;;;;5087674;28;20201;-73
2022/01/24 04:02:35;;;;;;;2.22;2.03;;;;;;;;;;5078235;28;20194;-73
2022/01/24 04:05:02;;;;;;;2.03;1.83;;;;;;;;;;5086978;28;20201;-73
2022/01/24 04:07:29;;;;;;;2.25;1.75;;;;;;;;;;5084756;28;20266;-73
2022/01/24 04:10:01;;;;;;;2.03;1.48;;;;;;;;;;5074044;28;20208;-73
2022/01/24 04:12:28;;;;;;;1.88;1.77;;;;;;;;;;5081771;28;20625;-74
2022/01/24 04:15:09;;;;;;;3.22;2.42;;;;;;;;;;5078876;28;20201;-74
2022/01/24 04:17:40;;;;;;;2.40;2.20;;;;;;;;;;5079702;28;20317;-75
2022/01/24 04:22:54;;;;;;;1.88;1.50;;;;;;;;;;5084574;28;20270;-73
2022/01/24 04:25:23;;;;;;;1.73;1.63;;;;;;;;;;5081958;28;20189;-74
2022/01/24 04:27:51;;;;;;;1.67;1.58;;;;;;;;;;5075910;28;20667;-74
2022/01/24 04:30:20;;;;;;;2.00;1.80;;;;;;;;;;5078925;28;20284;-73
2022/01/24 04:32:47;;;;;;;2.17;1.98;;;;;;;;;;5084676;28;20259;-74
2022/01/24 04:35:14;;;;;;;1.67;1.50;;;;;;;;;;5086837;28;20197;-74
2022/01/24 04:37:41;;;;;;;1.63;1.50;;;;;;;;;;5081649;28;20248;-73
2022/01/24 04:40:09;;;;;;;2.28;1.60;;;;;;;;;;5081055;28;20254;-73
2022/01/24 04:42:45;;;;;;;2.20;1.63;;;;;;;;;;5081872;28;20202;-73
2022/01/24 04:45:30;;;;;;;2.03;1.83;;;;;;;;;;5076848;28;20222;-73
2022/01/24 04:51:02;;;;;;;1.73;1.63;;;;;;;;;;5079574;28;20197;-74
2022/01/24 04:56:14;;;;;;;2.30;1.95;;;;;;;;;;5079402;28;20254;-74
2022/01/24 04:58:41;;;;;;;3.55;1.40;;;;;;;;;;5084700;28;20197;-73
2022/01/24 05:01:08;;;;;;;2.17;1.48;;;;;;;;;;5082570;28;20197;-72
2022/01/24 05:03:36;;;;;;;2.35;2.15;;;;;;;;;;5082333;28;20202;-72
2022/01/24 05:06:03;;;;;;;2.20;1.83;;;;;;;;;;5076560;28;20596;-73
2022/01/24 05:08:30;;;;;;;1.73;1.58;;;;;;;;;;5080133;28;20565;-73
2022/01/24 05:11:04;;;;;;;1.70;1.33;;;;;;;;;;5081470;28;20193;-74
2022/01/24 05:24:45;;;;;;;1.73;1.55;;;;;;;;;;5081749;28;20261;-74
2022/01/24 05:27:12;;;;;;;2.55;2.15;;;;;;;;;;5082411;28;20194;-73
2022/01/24 05:29:39;;;;;;;1.65;1.48;;;;;;;;;;5082733;28;20273;-72
2022/01/24 05:32:08;;;;;;;1.60;1.30;;;;;;;;;;5090457;28;20673;-73
2022/01/24 05:34:36;;;;;;;2.58;1.58;;;;;;;;;;5087758;28;20194;-73
2022/01/24 05:37:04;;;;;;;1.63;1.50;;;;;;;;;;5080331;28;20217;-73
2022/01/24 05:39:31;;;;;;;1.60;1.50;;;;;;;;;;5075999;28;20233;-75
2022/01/24 05:41:58;;;;;;;1.50;1.40;;;;;;;;;;5087604;28;20672;-73
2022/01/24 05:44:25;;;;;;;2.20;2.00;;;;;;;;;;5088715;28;20202;-74
2022/01/24 05:46:52;;;;;;;1.75;1.65;;;;;;;;;;5085277;28;20190;-74
2022/01/24 05:49:19;;;;;;;2.85;1.83;;;;;;;;;;5085930;28;20197;-73
2022/01/24 05:51:47;;;;;;;1.50;1.40;;;;;;;;;;5089895;28;20243;-73
2022/01/24 05:54:14;;;;;;;2.13;1.92;;;;;;;;;;5082526;28;20197;-73
2022/01/24 05:56:41;;;;;;;1.70;1.60;;;;;;;;;;5088344;28;20696;-73
2022/01/24 05:59:08;;;;;;;2.00;1.63;;;;;;;;;;5089074;28;20201;-73
2022/01/24 06:01:35;;;;;;;2.15;1.70;;;;;;;;;;5086759;28;20653;-73
2022/01/24 06:04:02;;;;;;;1.70;1.60;;;;;;;;;;5087259;28;20247;-73
2022/01/24 06:06:29;;;;;;;1.65;1.48;;;;;;;;;;5074731;28;20190;-73
2022/01/24 06:08:58;;;;;;;2.38;1.50;;;;;;;;;;5078001;28;20208;-73
2022/01/24 06:11:26;;;;;;;2.10;1.90;;;;;;;;;;5083805;28;20202;-73
2022/01/24 06:13:53;;;;;;;2.05;1.77;;;;;;;;;;5079594;28;20247;-74
2022/01/24 06:16:20;;;;;;;2.75;1.88;;;;;;;;;;5082510;28;20657;-75
2022/01/24 06:18:47;;;;;;;1.45;1.33;;;;;;;;;;5078259;28;20198;-74
2022/01/24 06:21:14;;;;;;;1.80;1.67;;;;;;;;;;5079467;28;20198;-74
2022/01/24 06:23:41;;;;;;;1.45;1.35;;;;;;;;;;5087452;28;20193;-73
2022/01/24 06:26:10;;;;;;;1.80;1.30;;;;;;;;;;5090916;28;20630;-75
2022/01/24 06:28:37;;;;;;;1.45;1.35;;;;;;;;;;5080373;28;20305;-73
2022/01/24 06:31:05;;;;;;;2.30;2.10;;;;;;;;;;5089525;28;20232;-73
2022/01/24 06:33:32;;;;;;;2.47;1.70;;;;;;;;;;5081657;28;20905;-73
2022/01/24 06:35:59;;;;;;;2.58;1.75;;;;;;;;;;5080455;28;20208;-75
2022/01/24 06:38:26;;;;;;;2.05;1.85;;;;;;;;;;5079929;28;20267;-73
2022/01/24 06:40:53;;;;;;;2.55;1.77;;;;;;;;;;5080696;28;20201;-73
2022/01/24 06:43:21;;;;;;;2.85;2.28;;;;;;;;;;5084096;28;20190;-74
2022/01/24 06:45:48;;;;;;;2.42;2.00;;;;;;;;;;5083609;28;20221;-74
2022/01/24 06:48:15;;;;;;;1.55;1.35;;;;;;;;;;5086838;28;20552;-75
2022/01/24 06:50:42;;;;;;;1.75;1.65;;;;;;;;;;5080461;28;20194;-75
2022/01/24 06:53:09;;;;;;;2.35;2.08;;;;;;;;;;5090135;28;20215;-74
2022/01/24 06:55:36;;;;;;;2.15;1.98;;;;;;;;;;5082916;28;20193;-73
2022/01/24 06:58:04;;;;;;;3.03;1.70;;;;;;;;;;5086464;28;20250;-74
2022/01/24 07:00:32;;;;;;;1.80;1.70;;;;;;;;;;5085293;28;20195;-73
2022/01/24 07:02:59;;;;;;;1.50;1.27;;;;;;;;;;5086717;28;20197;-74
2022/01/24 07:05:27;;;;;;;2.15;1.67;;;;;;;;;;5087431;28;20668;-75
2022/01/24 07:07:56;;;;;;;2.10;1.73;;;;;;;;;;5075757;28;20209;-74
2022/01/24 07:10:24;;;;;;;1.45;1.35;;;;;;;;;;5086259;28;20666;-76
2022/01/24 07:12:51;;;;;;;1.70;1.58;;;;;;;;;;5080016;28;20210;-74
2022/01/24 07:15:20;;;;;;;2.13;1.63;;;;;;;;;;5081944;28;20215;-75
2022/01/24 07:20:35;;;;;;;1.65;1.55;;;;;;;;;;5085946;28;20615;-74
2022/01/24 07:23:02;;;;;;;2.92;1.50;;;;;;;;;;5085621;28;20284;-74
2022/01/24 07:25:29;;;;;;;1.80;1.70;;;;;;;;;;5085877;28;20254;-74
2022/01/24 07:27:56;;;;;;;1.88;1.70;;;;;;;;;;5085673;28;20193;-74
2022/01/24 07:30:23;;;;;;;1.70;1.40;;;;;;;;;;5077913;28;20556;-75
2022/01/24 07:32:51;;;;;;;2.38;1.77;;;;;;;;;;5084123;28;20201;-74
2022/01/24 07:35:18;;;;;;;1.95;1.75;;;;;;;;;;5077254;28;20603;-74
2022/01/24 07:37:45;;;;;;;4.13;2.40;;;;;;;;;;5085487;28;20206;-74
2022/01/24 07:40:13;;;;;;;2.03;1.80;;;;;;;;;;5082435;28;20621;-73
2022/01/24 07:42:53;;;;;;;1.95;1.75;;;;;;;;;;5083510;28;20244;-75
2022/01/24 07:45:21;;;;;;;2.45;1.83;;;;;;;;;;5076394;28;20355;-75
2022/01/24 07:47:49;;;;;;;3.38;2.10;;;;;;;;;;5091767;28;20193;-74
2022/01/24 07:50:18;;;;;;;1.95;1.70;;;;;;;;;;5084656;28;20205;-74
2022/01/24 07:52:45;;;;;;;2.20;1.60;;;;;;;;;;5078359;28;20190;-74
2022/01/24 07:55:12;;;;;;;2.38;1.75;;;;;;;;;;5078462;28;20201;-74
2022/01/24 07:57:39;;;;;;;2.67;2.20;;;;;;;;;;5077842;28;20222;-76
2022/01/24 08:00:07;;;;;;;1.92;1.80;;;;;;;;;;5087818;28;20201;-75
2022/01/24 08:02:35;;;;;;;2.20;2.00;;;;;;;;;;5081907;28;20201;-77
2022/01/24 08:05:02;;;;;;;2.15;1.83;;;;;;;;;;5086010;28;20202;-74
2022/01/24 08:07:30;;;;;;;3.55;2.90;;;;;;;;;;5082843;28;20296;-76
2022/01/24 08:09:57;;;;;;;2.00;1.80;;;;;;;;;;5080299;28;20541;-75
2022/01/24 08:12:24;;;;;;;3.17;2.88;;;;;;;;;;5074154;28;20197;-74
2022/01/24 08:14:52;;;;;;;3.35;3.05;;;;;;;;;;5070572;28;20221;-76
2022/01/24 08:17:19;;;;;;;2.80;2.30;;;;;;;;;;5077220;28;20299;-76
2022/01/24 08:19:46;;;;;;;2.67;2.00;;;;;;;;;;5073568;28;20301;-75
2022/01/24 08:22:13;;;;;;;2.33;1.70;;;;;;;;;;5077607;28;20189;-76
2022/01/24 08:24:42;;;;;;;2.45;2.17;;;;;;;;;;5073074;28;20692;-74
2022/01/24 08:27:09;;;;;;;3.13;2.30;;;;;;;;;;5083057;28;20190;-73
2022/01/24 08:29:36;;;;;;;3.22;2.97;;;;;;;;;;5074505;28;21067;-76
2022/01/24 08:32:03;;;;;;;2.42;2.22;;;;;;;;;;5075770;28;20259;-74
2022/01/24 08:34:30;;;;;;;2.03;1.83;;;;;;;;;;5081412;28;20709;-75
2022/01/24 08:36:57;;;;;;;2.85;2.35;;;;;;;;;;5074410;28;20706;-77
2022/01/24 08:39:24;;;;;;;3.47;3.17;;;;;;;;;;5067720;28;20194;-74
2022/01/24 08:42:03;;;;;;;2.42;2.20;;;;;;;;;;5075127;28;20198;-78
2022/01/24 08:45:43;;;;;;;3.08;2.50;;;;;;;;;;5074895;28;20225;-74
2022/01/24 08:47:21;;;;;;;2.50;2.30;;;;;;;;;;5072470;28;20190;-76
2022/01/24 08:49:48;;;;;;;3.10;2.80;;;;;;;;;;5087870;28;20415;-76
2022/01/24 08:52:15;;;;;;;3.75;2.60;;;;;;;;;;5075043;28;21752;-77
2022/01/24 08:54:42;;;;;;;2.10;1.92;;;;;;;;;;5084544;28;20201;-76
2022/01/24 08:57:13;;;;;;;2.65;2.45;;;;;;;;;;5076045;28;20623;-76
2022/01/24 08:59:40;;;;;;;2.33;2.13;;;;;;;;;;5075391;28;20206;-75
2022/01/24 09:02:07;;;;;;;3.67;2.58;;;;;;;;;;5071152;28;20669;-78
2022/01/24 09:04:34;;;;;;;3.05;2.65;;;;;;;;;;5082464;28;20201;-72
2022/01/24 09:07:04;;;;;;;3.10;2.80;;;;;;;;;;5088062;28;20306;-77
2022/01/24 09:09:31;;;;;;;2.78;2.55;;;;;;;;;;5091526;28;20196;-80
2022/01/24 09:11:58;;;;;;;3.38;2.80;;;;;;;;;;5079942;28;20209;-75
2022/01/24 09:14:26;;;;;;;3.42;3.13;;;;;;;;;;5076940;28;20190;-77
2022/01/24 09:16:54;;;;;;;3.70;2.85;;;;;;;;;;5082679;28;20197;-78
2022/01/24 09:19:21;;;;;;;3.47;3.17;;;;;;;;;;5083671;28;20603;-75
2022/01/24 09:21:48;;;;;;;3.00;2.75;;;;;;;;;;5076665;28;20614;-78
2022/01/24 09:24:15;;;;;;;3.67;3.15;;;;;;;;;;5075601;28;20204;-79
2022/01/24 09:26:42;;;;;;;3.70;3.35;;;;;;;;;;5077207;28;20209;-77
2022/01/24 09:29:09;;;;;;;3.22;2.92;;;;;;;;;;5075030;28;20594;-76
2022/01/24 09:31:37;;;;;;;3.90;3.40;;;;;;;;;;5074665;28;20209;-79
2022/01/24 09:34:04;;;;;;;3.90;2.83;;;;;;;;;;5073245;28;20206;-77
2022/01/24 09:36:31;;;;;;;3.60;3.30;;;;;;;;;;5075896;28;20202;-77
2022/01/24 09:38:58;;;;;;;3.50;3.20;;;;;;;;;;5077349;28;20237;-76
2022/01/24 09:41:25;;;;;;;5.25;4.05;;;;;;;;;;5076322;28;20216;-76
2022/01/24 09:43:52;;;;;;;3.20;2.67;;;;;;;;;;5076968;28;20197;-76
2022/01/24 09:46:19;;;;;;;2.95;2.75;;;;;;;;;;5073134;28;20247;-77
2022/01/24 09:48:48;;;;;;;2.65;2.42;;;;;;;;;;5076095;28;20251;-76
2022/01/24 09:51:15;;;;;;;3.30;2.70;;;;;;;;;;5073551;28;20246;-75
2022/01/24 09:53:42;;;;;;;5.38;3.85;;;;;;;;;;5074967;28;20580;-75
2022/01/24 09:56:09;;;;;;;4.00;2.63;;;;;;;;;;5077319;28;20210;-76
2022/01/24 09:58:37;;;;;;;4.80;3.50;;;;;;;;;;5076733;28;20229;-75
2022/01/24 10:01:05;;;;;;;5.10;3.90;;;;;;;;;;5074576;28;20198;-76
2022/01/24 10:03:32;;;;;;;4.25;3.85;;;;;;;;;;5072999;28;22511;-75
2022/01/24 10:06:01;;;;;;;3.90;3.60;;;;;;;;;;5075754;28;20740;-75
2022/01/24 10:08:29;;;;;;;6.28;4.40;;;;;;;;;;5077475;28;20202;-77
2022/01/24 10:10:58;;;;;;;4.18;3.78;;;;;;;;;;5075942;28;20223;-74
2022/01/24 10:16:31;;;;;;;5.03;3.60;;;;;;;;;;5070321;28;20323;-79
2022/01/24 10:19:03;;;;;;;3.78;3.38;;;;;;;;;;5072718;28;20319;-78
2022/01/24 10:21:37;;;;;;;3.35;3.05;;;;;;;;;;5077118;28;20205;-77
2022/01/24 10:24:04;;;;;;;3.92;3.60;;;;;;;;;;5072189;28;20206;-78
2022/01/24 10:26:31;;;;;;;4.68;4.13;;;;;;;;;;5073119;28;20204;-75
2022/01/24 10:28:59;;;;;;;4.25;3.85;;;;;;;;;;5073817;28;20207;-77
2022/01/24 10:31:28;;;;;;;4.35;4.03;;;;;;;;;;5073645;28;20213;-76
2022/01/24 10:34:00;;;;;;;3.95;3.55;;;;;;;;;;5078126;28;20208;-75
2022/01/24 10:36:29;;;;;;;3.65;3.38;;;;;;;;;;5079019;28;20204;-76
2022/01/24 10:39:09;;;;;;;4.90;3.97;;;;;;;;;;5075292;28;20228;-77
2022/01/24 10:41:53;;;;;;;6.07;4.25;;;;;;;;;;5072764;28;20202;-76
2022/01/24 10:44:27;;;;;;;6.68;5.07;;;;;;;;;;5074750;28;20198;-75
2022/01/24 10:46:54;;;;;;;4.82;4.20;;;;;;;;;;5077741;28;20739;-74
2022/01/24 10:49:32;;;;;;;4.22;3.90;;;;;;;;;;5076416;28;20198;-75
2022/01/24 10:52:09;;;;;;;8.45;3.95;;;;;;;;;;5071535;28;20232;-77
2022/01/24 10:54:37;;;;;;;6.47;4.10;;;;;;;;;;5083290;28;20346;-77
2022/01/24 10:57:05;;;;;;;3.97;3.47;;;;;;;;;;5076911;28;20224;-76
2022/01/24 10:59:32;;;;;;;3.97;3.42;;;;;;;;;;5073921;28;20217;-77
2022/01/24 11:02:01;;;;;;;5.60;4.40;;;;;;;;;;5071872;28;20197;-77
2022/01/24 11:04:28;;;;;;;4.00;3.58;;;;;;;;;;5072470;28;20209;-77
2022/01/24 11:06:56;;;;;;;5.82;4.22;;;;;;;;;;5067244;28;20256;-77
2022/01/24 11:09:24;;;;;;;4.30;3.90;;;;;;;;;;5075220;28;20197;-77
2022/01/24 11:11:54;;;;;;;6.18;4.20;;;;;;;;;;5072937;28;20197;-77
2022/01/24 11:14:23;;;;;;;4.40;3.80;;;;;;;;;;5072989;28;22142;-76
2022/01/24 11:16:50;;;;;;;6.00;4.40;;;;;;;;;;5073523;28;20219;-76
2022/01/24 11:19:25;;;;;;;3.60;3.00;;;;;;;;;;5070751;28;20233;-77
2022/01/24 11:21:53;;;;;;;4.40;3.25;;;;;;;;;;5069592;28;20878;-77
2022/01/24 11:24:26;;;;;;;4.50;4.10;;;;;;;;;;5077758;28;20201;-77
2022/01/24 11:26:55;;;;;;;4.57;3.78;;;;;;;;;;5073405;28;20201;-76
2022/01/24 11:29:23;;;;;;;4.20;3.78;;;;;;;;;;5076228;28;20201;-76
2022/01/24 11:31:52;;;;;;;4.60;4.20;;;;;;;;;;5081012;28;20217;-76
2022/01/24 11:34:28;;;;;;;4.70;4.25;;;;;;;;;;5073638;28;20197;-76
2022/01/24 11:36:56;;;;;;;6.60;4.70;;;;;;;;;;5074793;28;20683;-76
2022/01/24 11:39:23;;;;;;;4.10;3.80;;;;;;;;;;5071728;28;20632;-77
2022/01/24 11:41:50;;;;;;;6.88;5.03;;;;;;;;;;5071546;28;20217;-77
2022/01/24 11:44:21;;;;;;;4.60;4.07;;;;;;;;;;5072817;28;20201;-76
2022/01/24 11:46:51;;;;;;;6.82;3.33;;;;;;;;;;5074017;28;20206;-76
2022/01/24 11:49:19;;;;;;;4.57;4.10;;;;;;;;;;5074444;28;20237;-76
2022/01/24 11:51:47;;;;;;;6.35;3.60;;;;;;;;;;5073079;28;20225;-76
2022/01/24 11:54:30;;;;;;;5.30;3.83;;;;;;;;;;5071901;28;20673;-76
2022/01/24 11:57:18;;;;;;;5.18;4.57;;;;;;;;;;5072017;28;20224;-76
2022/01/24 11:59:47;;;;;;;5.07;4.15;;;;;;;;;;5073277;28;20221;-77
2022/01/24 12:02:15;;;;;;;6.15;4.28;;;;;;;;;;5069988;28;20267;-77
2022/01/24 12:04:52;;;;;;;4.25;3.85;;;;;;;;;;5076108;28;20193;-77
2022/01/24 12:07:20;;;;;;;6.38;4.68;;;;;;;;;;5071386;28;20201;-77
2022/01/24 12:09:48;;;;;;;4.90;4.38;;;;;;;;;;5074515;28;20201;-77
2022/01/24 12:12:39;;;;;;;5.20;4.70;;;;;;;;;;5076321;28;20735;-77
2022/01/24 12:15:09;;;;;;;4.63;4.00;;;;;;;;;;5057499;28;20198;-76
2022/01/24 12:17:46;;;;;;;4.22;3.90;;;;;;;;;;5071457;28;20197;-77
2022/01/24 12:20:34;;;;;;;6.00;3.90;;;;;;;;;;5070002;28;20276;-77
2022/01/24 12:23:24;;;;;;;6.45;4.60;;;;;;;;;;5074430;28;20201;-76
2022/01/24 12:25:53;;;;;;;5.00;4.60;;;;;;;;;;5072181;28;20209;-77
2022/01/24 12:28:23;;;;;;;4.20;3.80;;;;;;;;;;5074134;28;20198;-76
2022/01/24 12:31:02;;;;;;;4.22;3.92;;;;;;;;;;5070547;28;20380;-77
2022/01/24 12:33:33;;;;;;;3.63;3.28;;;;;;;;;;5071514;28;20615;-76
2022/01/24 12:36:01;;;;;;;4.20;3.75;;;;;;;;;;5073719;28;20209;-76
2022/01/24 12:38:40;;;;;;;4.40;4.03;;;;;;;;;;5070445;28;20225;-77
2022/01/24 12:41:17;;;;;;;5.40;4.72;;;;;;;;;;5069184;28;20337;-76
2022/01/24 12:43:55;;;;;;;4.75;4.35;;;;;;;;;;5073230;28;20192;-77
2022/01/24 12:46:25;;;;;;;4.90;4.50;;;;;;;;;;5074243;28;20225;-76
2022/01/24 12:48:52;;;;;;;4.43;4.05;;;;;;;;;;5071340;28;20228;-76
2022/01/24 12:51:21;;;;;;;5.25;4.20;;;;;;;;;;5070244;28;20517;-77
2022/01/24 12:53:49;;;;;;;6.47;4.63;;;;;;;;;;5075620;28;20216;-76
2022/01/24 12:56:18;;;;;;;6.85;5.35;;;;;;;;;;5083932;28;20661;-77
2022/01/24 12:58:47;;;;;;;4.93;4.53;;;;;;;;;;5076030;28;20688;-77
2022/01/24 13:01:21;;;;;;;6.07;5.45;;;;;;;;;;5069014;28;20609;-76
2022/01/24 13:03:50;;;;;;;6.43;5.93;;;;;;;;;;5070483;28;20576;-76
2022/01/24 13:06:18;;;;;;;7.72;5.55;;;;;;;;;;5071310;28;20201;-77
2022/01/24 13:08:55;;;;;;;6.18;5.50;;;;;;;;;;5073853;28;20668;-77
2022/01/24 13:11:23;;;;;;;9.25;6.05;;;;;;;;;;5073666;28;20205;-77
2022/01/24 13:14:05;;;;;;;6.00;5.47;;;;;;;;;;5067670;28;20205;-76
2022/01/24 13:22:26;;;;;;;5.30;4.80;;;;;;;;;;5070231;28;20204;-77
2022/01/24 13:25:04;;;;;;;5.30;4.55;;;;;;;;;;5072221;28;20293;-75
2022/01/24 13:27:37;;;;;;;5.38;4.88;;;;;;;;;;5068501;28;20205;-74
2022/01/24 13:30:05;;;;;;;5.13;4.63;;;;;;;;;;5073353;28;20239;-75
2022/01/24 13:32:47;;;;;;;6.63;5.20;;;;;;;;;;5066918;28;20210;-75
2022/01/24 13:35:17;;;;;;;6.97;5.30;;;;;;;;;;5074009;28;20604;-74
2022/01/24 13:37:44;;;;;;;4.40;3.95;;;;;;;;;;5074395;28;20235;-75
2022/01/24 13:40:12;;;;;;;5.93;4.75;;;;;;;;;;5070498;28;20283;-75
2022/01/24 13:42:39;;;;;;;5.30;4.80;;;;;;;;;;5074693;28;20247;-73
2022/01/24 13:45:07;;;;;;;5.80;5.30;;;;;;;;;;5077540;28;20213;-75
2022/01/24 13:47:34;;;;;;;7.28;5.20;;;;;;;;;;5083421;28;20205;-75
2022/01/24 13:50:01;;;;;;;5.80;5.28;;;;;;;;;;5077909;28;20729;-73
2022/01/24 13:52:30;;;;;;;6.38;5.82;;;;;;;;;;5076288;28;20198;-74
2022/01/24 13:55:12;;;;;;;5.97;5.45;;;;;;;;;;5076081;28;20205;-74
2022/01/24 13:57:44;;;;;;;6.20;5.50;;;;;;;;;;5069919;28;20213;-74
2022/01/24 14:00:12;;;;;;;5.68;5.13;;;;;;;;;;5074198;28;20217;-73
2022/01/24 14:02:39;;;;;;;5.63;5.13;;;;;;;;;;5071605;28;20194;-73
2022/01/24 14:05:07;;;;;;;5.60;5.10;;;;;;;;;;5080855;28;20218;-75
2022/01/24 14:07:41;;;;;;;5.38;4.95;;;;;;;;;;5074868;28;20272;-74
2022/01/24 14:10:09;;;;;;;5.43;4.93;;;;;;;;;;5075868;28;20197;-74
2022/01/24 14:12:48;;;;;;;10.85;6.10;;;;;;;;;;5074235;28;20248;-75
2022/01/24 14:15:20;;;;;;;6.22;4.75;;;;;;;;;;5077897;28;20205;-73
2022/01/24 14:18:19;;;;;;;5.60;5.10;;;;;;;;;;5078617;28;20608;-73
2022/01/24 14:20:47;;;;;;;5.18;4.68;;;;;;;;;;5075175;28;20193;-73
2022/01/24 14:23:22;;;;;;;5.88;5.38;;;;;;;;;;5074112;28;20209;-75
2022/01/24 14:25:50;;;;;;;8.65;5.88;;;;;;;;;;5075213;28;20197;-74
2022/01/24 14:28:18;;;;;;;5.40;4.88;;;;;;;;;;5071213;28;20224;-74
2022/01/24 14:30:46;;;;;;;6.68;5.97;;;;;;;;;;5078381;28;20280;-73
2022/01/24 14:33:14;;;;;;;5.60;5.05;;;;;;;;;;5074207;28;20199;-74
2022/01/24 14:35:52;;;;;;;5.47;4.95;;;;;;;;;;5075142;28;20213;-73
2022/01/24 14:38:29;;;;;;;7.75;5.95;;;;;;;;;;5076996;28;20202;-73
2022/01/24 14:40:58;;;;;;;6.68;5.85;;;;;;;;;;5079858;28;20189;-75
2022/01/24 14:46:14;;;;;;;6.10;5.50;;;;;;;;;;5080850;28;20351;-74
2022/01/24 14:48:49;;;;;;;6.25;5.57;;;;;;;;;;5076416;28;20197;-74
2022/01/24 14:51:18;;;;;;;6.22;5.45;;;;;;;;;;5067112;28;20460;-75
2022/01/24 14:53:46;;;;;;;5.75;5.25;;;;;;;;;;5075315;28;20205;-74
2022/01/24 14:56:14;;;;;;;6.65;5.25;;;;;;;;;;5075287;28;20201;-74
2022/01/24 14:58:41;;;;;;;6.20;5.38;;;;;;;;;;5081043;28;20252;-74
2022/01/24 15:01:08;;;;;;;5.40;5.00;;;;;;;;;;5076629;28;20668;-74
2022/01/24 15:03:37;;;;;;;5.35;4.85;;;;;;;;;;5083003;28;20620;-73
2022/01/24 15:06:04;;;;;;;6.35;5.75;;;;;;;;;;5080487;28;20444;-73
2022/01/24 15:08:32;;;;;;;5.45;4.93;;;;;;;;;;5075799;28;20259;-74
2022/01/24 15:11:00;;;;;;;6.70;6.10;;;;;;;;;;5074418;28;20543;-74
2022/01/24 15:13:36;;;;;;;6.28;5.68;;;;;;;;;;5074778;28;20254;-74
2022/01/24 15:16:13;;;;;;;6.95;6.25;;;;;;;;;;5070759;28;20197;-74
2022/01/24 15:24:36;;;;;;;5.60;5.05;;;;;;;;;;5070810;28;20795;-73
2022/01/24 15:27:04;;;;;;;10.60;5.45;;;;;;;;;;5072982;28;20314;-74
2022/01/24 15:29:32;;;;;;;6.68;5.80;;;;;;;;;;5069186;28;20573;-75
2022/01/24 15:32:03;;;;;;;6.35;5.75;;;;;;;;;;5073115;28;20262;-75
2022/01/24 15:34:30;;;;;;;13.48;6.25;;;;;;;;;;5073943;28;20202;-76
2022/01/24 15:36:57;;;;;;;7.32;5.55;;;;;;;;;;5072889;28;20228;-73
2022/01/24 15:39:24;;;;;;;5.70;5.25;;;;;;;;;;5076669;28;20581;-74
2022/01/24 15:41:55;;;;;;;5.95;5.28;;;;;;;;;;5075010;28;20197;-73
2022/01/24 15:47:31;;;;;;;6.47;5.88;;;;;;;;;;5071346;28;20674;-73
2022/01/24 15:49:59;;;;;;;6.63;5.63;;;;;;;;;;5076365;28;20225;-73
2022/01/24 15:52:26;;;;;;;9.45;5.80;;;;;;;;;;5073129;28;20201;-73
2022/01/24 15:54:55;;;;;;;10.60;6.38;;;;;;;;;;5075968;28;20213;-74
2022/01/24 15:57:41;;;;;;;6.13;5.63;;;;;;;;;;5073676;28;20204;-74
2022/01/24 16:00:11;;;;;;;6.95;6.35;;;;;;;;;;5072610;28;20299;-73
2022/01/24 16:02:39;;;;;;;6.93;6.30;;;;;;;;;;5075612;28;20580;-75
2022/01/24 16:05:06;;;;;;;9.57;5.65;;;;;;;;;;5062570;28;20562;-73
2022/01/24 16:07:36;;;;;;;7.05;5.70;;;;;;;;;;5074777;28;20209;-76
2022/01/24 16:10:03;;;;;;;7.30;5.30;;;;;;;;;;5075555;28;20295;-75
2022/01/24 16:12:30;;;;;;;6.75;6.15;;;;;;;;;;5072471;28;20251;-73
2022/01/24 16:14:57;;;;;;;5.60;5.10;;;;;;;;;;5072172;28;20604;-74
2022/01/24 16:17:25;;;;;;;7.10;6.43;;;;;;;;;;5072470;28;20665;-73
2022/01/24 16:19:55;;;;;;;6.47;5.88;;;;;;;;;;5070273;28;20226;-73
2022/01/24 16:22:44;;;;;;;8.48;5.78;;;;;;;;;;5072361;28;20198;-75
2022/01/24 16:25:33;;;;;;;6.40;5.85;;;;;;;;;;5071853;28;20202;-75
2022/01/24 16:28:00;;;;;;;5.20;4.72;;;;;;;;;;5068738;28;20226;-74